createdAt,value
2023-01-21T00:01:16.499Z,46.73
2023-01-21T00:03:45.108Z,46.93
2023-01-21T00:06:17.707Z,46.66
2023-01-21T00:08:45.418Z,46.81
2023-01-21T00:11:15.539Z,46.94
2023-01-21T00:13:44.597Z,46.70
2023-01-21T00:16:13.591Z,46.67
2023-01-21T00:18:41.709Z,46.58
2023-01-21T00:21:09.789Z,46.71
2023-01-21T00:23:37.527Z,46.50
2023-01-21T00:26:07.884Z,46.60
2023-01-21T00:28:37.276Z,46.54
2023-01-21T00:31:09.198Z,46.41
2023-01-21T00:33:37.416Z,46.52
2023-01-21T00:36:11.606Z,46.62
2023-01-21T00:38:39.573Z,46.33
2023-01-21T00:41:10.894Z,46.58
2023-01-21T00:43:39.821Z,46.49
2023-01-21T00:46:07.847Z,46.02
2023-01-21T00:48:35.734Z,46.51
2023-01-21T00:51:04.101Z,46.38
2023-01-21T00:53:35.864Z,46.20
2023-01-21T00:56:07.192Z,46.23
2023-01-21T00:58:35.995Z,46.14
2023-01-21T01:01:11.289Z,46.17
2023-01-21T01:03:40.667Z,46.03
2023-01-21T01:06:18.600Z,46.18
2023-01-21T01:08:46.920Z,46.06
2023-01-21T01:11:15.847Z,45.95
2023-01-21T01:13:43.928Z,46.08
2023-01-21T01:16:15.217Z,46.13
2023-01-21T01:18:44.548Z,45.93
2023-01-21T01:21:16.689Z,45.90
2023-01-21T01:23:45.508Z,45.64
2023-01-21T01:26:17.175Z,45.77
2023-01-21T01:28:45.624Z,45.60
2023-01-21T01:31:17.020Z,45.70
2023-01-21T01:33:45.138Z,45.52
2023-01-21T01:36:20.665Z,45.77
2023-01-21T01:38:48.384Z,45.93
2023-01-21T01:41:20.189Z,46.02
2023-01-21T01:43:54.152Z,46.01
2023-01-21T01:46:24.484Z,45.96
2023-01-21T01:49:14.557Z,46.36
2023-01-21T01:51:50.440Z,46.04
2023-01-21T01:54:23.454Z,46.00
2023-01-21T01:56:55.478Z,46.13
2023-01-21T01:59:24.045Z,46.29
2023-01-21T02:01:52.082Z,46.20
2023-01-21T02:04:29.687Z,46.11
2023-01-21T02:06:58.144Z,46.14
2023-01-21T02:09:29.784Z,46.17
2023-01-21T02:12:01.022Z,46.00
2023-01-21T02:14:30.656Z,46.29
2023-01-21T02:17:39.299Z,46.09
2023-01-21T02:20:15.752Z,46.49
2023-01-21T02:23:20.585Z,46.70
2023-01-21T02:26:15.192Z,46.67
2023-01-21T02:29:14.236Z,46.26
2023-01-21T02:32:13.635Z,46.22
2023-01-21T02:34:56.848Z,46.39
2023-01-21T02:38:06.978Z,46.53
2023-01-21T02:40:54.925Z,46.65
2023-01-21T02:43:41.725Z,46.61
2023-01-21T02:46:47.991Z,47.05
2023-01-21T02:49:27.330Z,46.75
2023-01-21T02:51:55.173Z,46.86
2023-01-21T02:54:41.161Z,46.50
2023-01-21T02:57:31.178Z,46.75
2023-01-21T03:00:01.307Z,47.32
2023-01-21T03:02:56.500Z,46.82
2023-01-21T03:06:09.827Z,47.07
2023-01-21T03:09:25.433Z,46.71
2023-01-21T03:12:29.751Z,46.54
2023-01-21T03:15:50.515Z,47.29
2023-01-21T03:18:24.478Z,46.73
2023-01-21T03:21:07.317Z,47.27
2023-01-21T03:23:42.988Z,46.99
2023-01-21T03:26:14.526Z,47.53
2023-01-21T03:28:49.091Z,47.00
2023-01-21T03:31:23.993Z,47.57
2023-01-21T03:33:55.932Z,47.02
2023-01-21T03:36:58.697Z,47.02
2023-01-21T03:39:43.943Z,47.18
2023-01-21T03:42:13.340Z,46.87
2023-01-21T03:44:42.384Z,47.33
2023-01-21T03:47:36.392Z,47.60
2023-01-21T03:50:20.318Z,47.61
2023-01-21T03:52:48.278Z,47.09
2023-01-21T03:55:19.352Z,47.04
2023-01-21T03:57:47.436Z,47.71
2023-01-21T04:00:16.124Z,47.45
2023-01-21T04:02:44.330Z,47.77
2023-01-21T04:05:14.227Z,47.95
2023-01-21T04:07:41.927Z,47.29
2023-01-21T04:10:10.726Z,47.36
2023-01-21T04:12:38.729Z,47.28
2023-01-21T04:15:07.610Z,47.88
2023-01-21T04:17:35.336Z,47.80
2023-01-21T04:20:03.066Z,48.07
2023-01-21T04:22:30.792Z,47.65
2023-01-21T04:24:58.514Z,47.60
2023-01-21T04:27:26.229Z,48.24
2023-01-21T04:29:53.943Z,47.59
2023-01-21T04:32:21.671Z,47.90
2023-01-21T04:34:49.392Z,48.29
2023-01-21T04:37:17.133Z,48.10
2023-01-21T04:39:44.836Z,48.19
2023-01-21T04:42:12.557Z,48.23
2023-01-21T04:44:40.647Z,47.80
2023-01-21T04:47:08.371Z,48.41
2023-01-21T04:49:36.093Z,47.63
2023-01-21T04:52:04.179Z,47.63
2023-01-21T04:54:32.010Z,47.81
2023-01-21T04:56:59.753Z,48.37
2023-01-21T04:59:27.457Z,48.02
2023-01-21T05:01:55.190Z,48.31
2023-01-21T05:04:23.017Z,49.18
2023-01-21T05:06:50.744Z,49.53
2023-01-21T05:09:18.462Z,49.78
2023-01-21T05:11:46.307Z,49.49
2023-01-21T05:14:14.033Z,49.53
2023-01-21T05:16:41.908Z,49.90
2023-01-21T05:19:09.833Z,50.25
2023-01-21T05:21:37.673Z,50.14
2023-01-21T05:24:05.757Z,50.26
2023-01-21T05:26:33.482Z,50.18
2023-01-21T05:29:01.213Z,50.26
2023-01-21T05:31:29.151Z,50.04
2023-01-21T05:33:57.734Z,49.88
2023-01-21T05:36:25.449Z,50.58
2023-01-21T05:38:53.174Z,49.75
2023-01-21T05:41:20.896Z,49.93
2023-01-21T05:43:48.738Z,49.95
2023-01-21T05:46:17.324Z,49.71
2023-01-21T05:48:45.142Z,49.85
2023-01-21T05:51:13.158Z,49.79
2023-01-21T05:53:41.070Z,50.20
2023-01-21T05:56:08.907Z,49.75
2023-01-21T05:58:36.757Z,50.42
2023-01-21T06:01:04.712Z,50.01
2023-01-21T06:03:32.565Z,50.39
2023-01-21T06:06:00.397Z,49.91
2023-01-21T06:08:28.240Z,50.30
2023-01-21T06:10:56.443Z,50.75
2023-01-21T06:13:24.524Z,50.70
2023-01-21T06:15:56.539Z,50.92
2023-01-21T06:18:25.501Z,50.83
2023-01-21T06:20:53.825Z,50.27
2023-01-21T06:23:21.566Z,50.28
2023-01-21T06:25:49.259Z,50.58
2023-01-21T06:28:17.114Z,50.85
2023-01-21T06:30:45.324Z,50.89
2023-01-21T06:33:13.146Z,50.03
2023-01-21T06:35:40.984Z,51.12
2023-01-21T06:38:08.739Z,51.17
2023-01-21T06:40:36.428Z,50.54
2023-01-21T06:43:04.272Z,50.99
2023-01-21T06:45:32.008Z,50.64
2023-01-21T06:47:59.717Z,50.80
2023-01-21T06:50:27.578Z,50.44
2023-01-21T06:52:55.281Z,50.97
2023-01-21T06:55:23.005Z,50.79
2023-01-21T06:57:50.724Z,50.45
2023-01-21T07:00:19.641Z,50.59
2023-01-21T07:02:47.864Z,50.30
2023-01-21T07:05:16.043Z,51.07
2023-01-21T07:07:44.014Z,50.46
2023-01-21T07:10:12.105Z,50.52
2023-01-21T07:12:39.832Z,50.83
2023-01-21T07:15:08.620Z,50.66
2023-01-21T07:17:36.347Z,50.62
2023-01-21T07:20:05.166Z,51.02
2023-01-21T07:22:36.350Z,50.43
2023-01-21T07:25:05.511Z,50.42
2023-01-21T07:27:33.233Z,50.14
2023-01-21T07:30:00.969Z,50.51
2023-01-21T07:32:28.680Z,49.94
2023-01-21T07:34:56.644Z,51.02
2023-01-21T07:37:24.494Z,50.98
2023-01-21T07:39:54.503Z,50.59
2023-01-21T07:42:22.344Z,51.21
2023-01-21T07:44:50.171Z,50.72
2023-01-21T07:47:17.893Z,50.27
2023-01-21T07:49:45.614Z,50.41
2023-01-21T07:52:13.348Z,50.51
2023-01-21T07:54:42.021Z,50.83
2023-01-21T07:57:09.752Z,50.82
2023-01-21T07:59:37.465Z,50.53
2023-01-21T08:02:05.283Z,50.75
2023-01-21T08:04:33.033Z,50.75
2023-01-21T08:07:01.963Z,50.50
2023-01-21T08:09:29.794Z,50.67
2023-01-21T08:11:57.754Z,50.76
2023-01-21T08:14:25.493Z,50.82
2023-01-21T08:16:53.205Z,50.59
2023-01-21T08:19:20.925Z,50.56
2023-01-21T08:21:48.766Z,50.62
2023-01-21T08:24:16.488Z,50.10
2023-01-21T08:26:44.711Z,50.74
2023-01-21T08:29:12.412Z,50.60
2023-01-21T08:31:40.395Z,50.09
2023-01-21T08:34:08.222Z,50.16
2023-01-21T08:36:38.588Z,50.56
2023-01-21T08:39:06.460Z,50.23
2023-01-21T08:41:34.380Z,50.47
2023-01-21T08:44:02.230Z,50.68
2023-01-21T08:46:29.973Z,50.43
2023-01-21T08:48:57.670Z,50.06
2023-01-21T08:51:25.773Z,49.82
2023-01-21T08:53:53.596Z,50.09
2023-01-21T08:56:21.331Z,50.38
2023-01-21T08:58:54.683Z,50.63
2023-01-21T09:01:22.701Z,50.44
2023-01-21T09:03:57.834Z,49.55
2023-01-21T09:06:28.769Z,50.30
2023-01-21T09:08:57.011Z,50.31
2023-01-21T09:11:29.376Z,50.09
2023-01-21T09:14:00.610Z,50.23
2023-01-21T09:16:28.472Z,50.27
2023-01-21T09:18:56.861Z,50.11
2023-01-21T09:21:24.826Z,49.88
2023-01-21T09:23:52.561Z,49.87
2023-01-21T09:26:23.506Z,49.94
2023-01-21T09:28:58.432Z,50.09
2023-01-21T09:31:29.424Z,50.34
2023-01-21T09:34:03.861Z,50.19
2023-01-21T09:36:34.815Z,50.22
2023-01-21T09:39:02.887Z,50.32
2023-01-21T09:41:49.565Z,50.42
2023-01-21T09:44:39.986Z,50.69
2023-01-21T09:47:34.807Z,50.43
2023-01-21T09:50:10.347Z,50.44
2023-01-21T09:52:51.985Z,50.96
2023-01-21T09:55:41.294Z,50.63
2023-01-21T09:58:37.946Z,50.55
2023-01-21T10:01:34.387Z,50.84
2023-01-21T10:04:40.264Z,50.84
2023-01-21T10:07:27.789Z,50.77
2023-01-21T10:10:15.752Z,50.76
2023-01-21T10:13:20.551Z,50.56
2023-01-21T10:16:41.120Z,50.90
2023-01-21T10:19:19.746Z,50.40
2023-01-21T10:22:00.397Z,50.73
2023-01-21T10:24:45.283Z,50.85
2023-01-21T10:27:21.288Z,50.63
2023-01-21T10:29:54.408Z,50.71
2023-01-21T10:32:27.186Z,51.11
2023-01-21T10:34:57.812Z,51.22
2023-01-21T10:37:48.174Z,50.88
2023-01-21T10:40:44.247Z,50.54
2023-01-21T10:43:49.274Z,51.45
2023-01-21T10:46:18.911Z,51.40
2023-01-21T10:48:55.751Z,50.99
2023-01-21T10:51:38.595Z,51.07
2023-01-21T10:54:39.090Z,51.28
2023-01-21T10:57:45.915Z,51.27
2023-01-21T11:00:32.837Z,50.98
2023-01-21T11:03:14.362Z,51.45
2023-01-21T11:05:43.047Z,51.38
2023-01-21T11:08:22.681Z,51.61
2023-01-21T11:10:55.181Z,51.32
2023-01-21T11:13:23.749Z,50.97
2023-01-21T11:15:55.211Z,50.76
2023-01-21T11:18:30.937Z,50.97
2023-01-21T11:21:22.815Z,50.79
2023-01-21T11:24:19.423Z,50.76
2023-01-21T11:27:15.224Z,50.52
2023-01-21T11:29:42.948Z,50.66
2023-01-21T11:32:24.024Z,50.61
2023-01-21T11:35:22.071Z,50.72
2023-01-21T11:37:50.168Z,50.08
2023-01-21T11:40:28.927Z,50.11
2023-01-21T11:42:57.361Z,50.14
2023-01-21T11:45:31.925Z,50.45
2023-01-21T11:48:01.093Z,50.20
2023-01-21T11:50:40.564Z,50.35
2023-01-21T11:53:09.058Z,50.28
2023-01-21T11:55:59.776Z,50.25
2023-01-21T11:58:36.771Z,50.32
2023-01-21T12:01:08.547Z,50.40
2023-01-21T12:03:53.746Z,50.68
2023-01-21T12:06:26.062Z,50.25
2023-01-21T12:09:00.261Z,50.55
2023-01-21T12:11:31.225Z,50.46
2023-01-21T12:14:17.472Z,50.93
2023-01-21T12:17:09.990Z,50.36
2023-01-21T12:19:49.959Z,50.40
2023-01-21T12:22:57.878Z,50.60
2023-01-21T12:25:40.849Z,50.50
2023-01-21T12:28:30.163Z,51.11
2023-01-21T12:31:07.546Z,51.38
2023-01-21T12:33:50.563Z,51.08
2023-01-21T12:36:29.939Z,51.13
2023-01-21T12:39:23.828Z,50.79
2023-01-21T12:42:29.383Z,51.41
2023-01-21T12:45:23.106Z,51.86
2023-01-21T12:48:14.823Z,52.24
2023-01-21T12:50:57.066Z,52.55
2023-01-21T12:54:07.033Z,52.02
2023-01-21T12:56:39.307Z,52.23
2023-01-21T12:59:43.873Z,52.88
2023-01-21T13:02:49.394Z,52.87
2023-01-21T13:05:50.248Z,52.80
2023-01-21T13:08:44.000Z,52.89
2023-01-21T13:11:23.493Z,52.44
2023-01-21T13:14:19.892Z,52.84
2023-01-21T13:16:58.172Z,52.76
2023-01-21T13:19:26.018Z,53.08
2023-01-21T13:22:48.964Z,53.17
2023-01-21T13:25:33.819Z,52.76
2023-01-21T13:28:39.580Z,53.02
2023-01-21T13:31:18.550Z,53.66
2023-01-21T13:33:49.424Z,54.12
2023-01-21T13:36:29.147Z,53.52
2023-01-21T13:39:17.272Z,53.94
2023-01-21T13:42:37.552Z,53.96
2023-01-21T13:45:24.410Z,53.74
2023-01-21T13:48:39.482Z,53.63
2023-01-21T13:51:47.530Z,53.91
2023-01-21T13:55:10.566Z,53.74
2023-01-21T13:58:02.936Z,53.85
2023-01-21T14:00:43.944Z,53.46
2023-01-21T14:03:35.061Z,53.46
2023-01-21T14:06:19.936Z,53.77
2023-01-21T14:09:16.577Z,53.87
2023-01-21T14:12:17.441Z,53.29
2023-01-21T14:15:29.446Z,53.01
2023-01-21T14:18:33.869Z,53.09
2023-01-21T14:21:49.472Z,53.31
2023-01-21T14:24:47.313Z,53.25
2023-01-21T14:27:26.916Z,53.39
2023-01-21T14:30:08.925Z,53.27
2023-01-21T14:32:57.413Z,53.28
2023-01-21T14:35:28.247Z,53.64
2023-01-21T14:38:46.969Z,53.50
2023-01-21T14:41:15.774Z,53.49
2023-01-21T14:43:44.368Z,53.68
2023-01-21T14:46:33.889Z,53.41
2023-01-21T14:49:10.400Z,53.88
2023-01-21T14:51:47.703Z,53.81
2023-01-21T14:54:26.827Z,54.15
2023-01-21T14:57:13.641Z,53.82
2023-01-21T14:59:46.744Z,53.88
2023-01-21T15:02:37.187Z,54.12
2023-01-21T15:05:26.128Z,54.13
2023-01-21T15:08:11.372Z,53.72
2023-01-21T15:10:41.361Z,53.40
2023-01-21T15:13:39.595Z,53.96
2023-01-21T15:16:16.318Z,53.23
2023-01-21T15:19:16.429Z,53.28
2023-01-21T15:22:18.689Z,53.42
2023-01-21T15:25:15.695Z,53.02
2023-01-21T15:28:40.650Z,53.44
2023-01-21T15:31:12.036Z,53.29
2023-01-21T15:33:47.291Z,52.95
2023-01-21T15:36:30.461Z,53.04
2023-01-21T15:39:12.956Z,52.68
2023-01-21T15:41:50.746Z,52.89
2023-01-21T15:44:48.239Z,52.57
2023-01-21T15:47:39.115Z,53.03
2023-01-21T15:50:25.082Z,53.08
2023-01-21T15:53:50.638Z,52.57
2023-01-21T15:56:57.300Z,52.77
2023-01-21T15:59:34.805Z,52.67
2023-01-21T16:02:28.266Z,52.93
2023-01-21T16:05:20.406Z,52.52
2023-01-21T16:08:14.184Z,52.46
2023-01-21T16:11:11.080Z,52.33
2023-01-21T16:13:51.859Z,52.85
2023-01-21T16:16:56.068Z,52.82
2023-01-21T16:19:35.187Z,52.62
2023-01-21T16:22:07.657Z,52.38
2023-01-21T16:24:49.838Z,52.44
2023-01-21T16:27:28.237Z,52.14
2023-01-21T16:30:11.823Z,52.01
2023-01-21T16:32:39.516Z,52.44
2023-01-21T16:35:08.077Z,52.28
2023-01-21T16:37:36.290Z,52.26
2023-01-21T16:40:12.883Z,52.71
2023-01-21T16:42:41.685Z,52.59
2023-01-21T16:45:14.859Z,52.77
2023-01-21T16:47:43.010Z,52.88
2023-01-21T16:50:24.775Z,52.90
2023-01-21T16:52:54.442Z,53.08
2023-01-21T16:55:27.790Z,52.83
2023-01-21T16:57:59.109Z,52.94
2023-01-21T17:00:31.024Z,52.85
2023-01-21T17:03:00.622Z,53.03
2023-01-21T17:05:34.524Z,52.72
2023-01-21T17:08:09.914Z,52.91
2023-01-21T17:10:52.637Z,52.60
2023-01-21T17:13:22.655Z,52.94
2023-01-21T17:16:00.696Z,52.52
2023-01-21T17:18:34.175Z,53.05
2023-01-21T17:21:14.848Z,52.73
2023-01-21T17:24:07.788Z,52.80
2023-01-21T17:26:41.971Z,53.06
2023-01-21T17:29:21.933Z,52.81
2023-01-21T17:32:02.787Z,52.83
2023-01-21T17:34:36.599Z,53.00
2023-01-21T17:38:03.837Z,52.74
2023-01-21T17:40:58.783Z,52.79
2023-01-21T17:43:28.068Z,52.64
2023-01-21T17:45:58.025Z,52.70
2023-01-21T17:48:46.317Z,52.79
2023-01-21T17:51:30.180Z,52.69
2023-01-21T17:54:00.838Z,53.03
2023-01-21T17:56:50.527Z,53.16
2023-01-21T17:59:40.921Z,53.13
2023-01-21T18:02:17.044Z,53.09
2023-01-21T18:04:45.644Z,53.16
2023-01-21T18:07:24.624Z,54.07
2023-01-21T18:09:54.248Z,53.99
2023-01-21T18:12:22.331Z,54.16
2023-01-21T18:14:50.175Z,54.02
2023-01-21T18:17:20.777Z,54.13
2023-01-21T18:19:48.625Z,54.37
2023-01-21T18:22:28.234Z,54.91
2023-01-21T18:24:56.324Z,54.41
2023-01-21T18:27:26.102Z,54.33
2023-01-21T18:29:54.758Z,55.03
2023-01-21T18:32:22.479Z,54.83
2023-01-21T18:34:50.338Z,55.08
2023-01-21T18:37:20.081Z,55.24
2023-01-21T18:39:47.921Z,55.33
2023-01-21T18:42:18.045Z,55.22
2023-01-21T18:44:46.019Z,55.67
2023-01-21T18:47:16.971Z,55.66
2023-01-21T18:49:45.893Z,56.02
2023-01-21T18:52:17.717Z,55.49
2023-01-21T18:54:45.657Z,55.58
2023-01-21T18:57:21.422Z,55.42
2023-01-21T18:59:49.279Z,55.41
2023-01-21T19:02:20.388Z,55.38
2023-01-21T19:04:48.551Z,55.40
2023-01-21T19:07:19.033Z,54.86
2023-01-21T19:09:49.152Z,55.85
2023-01-21T19:12:21.088Z,55.87
2023-01-21T19:14:49.167Z,55.78
2023-01-21T19:17:35.130Z,55.89
2023-01-21T19:20:02.960Z,55.42
2023-01-21T19:22:30.678Z,55.41
2023-01-21T19:24:58.408Z,55.68
2023-01-21T19:27:31.653Z,55.35
2023-01-21T19:29:59.370Z,55.29
2023-01-21T19:32:27.215Z,55.56
2023-01-21T19:34:57.703Z,55.31
2023-01-21T19:37:25.789Z,55.57
2023-01-21T19:39:53.618Z,55.95
2023-01-21T19:42:21.339Z,55.87
2023-01-21T19:44:49.080Z,56.37
2023-01-21T19:47:28.910Z,55.53
2023-01-21T19:49:56.752Z,55.94
2023-01-21T19:52:24.588Z,55.80
2023-01-21T19:54:54.824Z,56.67
2023-01-21T19:57:22.792Z,56.12
2023-01-21T19:59:52.922Z,57.02
2023-01-21T20:02:20.712Z,56.58
2023-01-21T20:04:48.478Z,56.86
2023-01-21T20:07:16.705Z,56.98
2023-01-21T20:09:44.409Z,56.18
2023-01-21T20:12:13.457Z,55.98
2023-01-21T20:14:41.289Z,56.75
2023-01-21T20:17:13.213Z,56.34
2023-01-21T20:19:41.067Z,56.34
2023-01-21T20:22:13.221Z,56.04
2023-01-21T20:24:40.940Z,56.41
2023-01-21T20:27:14.272Z,56.33
2023-01-21T20:29:49.663Z,56.96
2023-01-21T20:32:23.430Z,57.19
2023-01-21T20:34:51.148Z,56.20
2023-01-21T20:37:18.869Z,56.88
2023-01-21T20:39:46.713Z,56.55
2023-01-21T20:42:14.436Z,56.66
2023-01-21T20:44:42.165Z,57.35
2023-01-21T20:47:11.208Z,57.19
2023-01-21T20:49:38.921Z,57.67
2023-01-21T20:52:06.765Z,57.40
2023-01-21T20:54:34.494Z,57.68
2023-01-21T20:57:03.816Z,57.65
2023-01-21T20:59:31.496Z,57.51
2023-01-21T21:01:59.248Z,57.42
2023-01-21T21:04:29.117Z,57.99
2023-01-21T21:06:56.821Z,57.84
2023-01-21T21:09:24.551Z,58.18
2023-01-21T21:11:52.263Z,57.21
2023-01-21T21:14:20.719Z,57.99
2023-01-21T21:16:48.492Z,58.33
2023-01-21T21:19:16.389Z,58.27
2023-01-21T21:21:44.122Z,57.78
2023-01-21T21:24:11.836Z,57.94
2023-01-21T21:26:41.018Z,57.83
2023-01-21T21:29:15.681Z,57.89
2023-01-21T21:31:43.465Z,57.73
2023-01-21T21:34:12.205Z,57.59
2023-01-21T21:36:42.327Z,57.73
2023-01-21T21:39:10.049Z,58.10
2023-01-21T21:41:56.254Z,57.66
2023-01-21T21:44:23.976Z,57.72
2023-01-21T21:47:10.297Z,57.84
2023-01-21T21:49:38.034Z,57.81
2023-01-21T21:52:05.863Z,58.28
2023-01-21T21:54:33.591Z,58.10
2023-01-21T21:57:01.315Z,57.62
2023-01-21T21:59:29.170Z,57.83
2023-01-21T22:01:58.525Z,57.95
2023-01-21T22:04:26.280Z,58.00
2023-01-21T22:06:53.995Z,57.51
2023-01-21T22:09:21.838Z,58.81
2023-01-21T22:11:49.686Z,58.23
2023-01-21T22:14:18.006Z,58.25
2023-01-21T22:16:45.911Z,58.83
2023-01-21T22:19:13.688Z,58.44
2023-01-21T22:21:41.423Z,58.03
2023-01-21T22:24:10.220Z,57.75
2023-01-21T22:26:38.187Z,58.72
2023-01-21T22:29:06.378Z,58.73
2023-01-21T22:31:34.721Z,58.68
2023-01-21T22:34:02.444Z,58.46
2023-01-21T22:36:31.473Z,58.85
2023-01-21T22:38:59.921Z,58.74
2023-01-21T22:41:28.470Z,59.00
2023-01-21T22:43:56.553Z,59.14
2023-01-21T22:46:30.167Z,58.19
2023-01-21T22:48:58.477Z,58.77
2023-01-21T22:51:26.662Z,58.53
2023-01-21T22:53:54.880Z,58.22
2023-01-21T22:56:44.970Z,58.39
2023-01-21T22:59:13.986Z,58.27
2023-01-21T23:01:42.369Z,58.39
2023-01-21T23:04:10.390Z,58.22
2023-01-21T23:06:38.215Z,58.70
2023-01-21T23:09:09.181Z,58.77
2023-01-21T23:11:39.660Z,58.53
2023-01-21T23:14:09.930Z,58.65
2023-01-21T23:16:37.744Z,58.48
2023-01-21T23:19:05.704Z,59.14
2023-01-21T23:21:33.672Z,59.46
2023-01-21T23:24:01.633Z,59.00
2023-01-21T23:26:29.473Z,58.84
2023-01-21T23:28:58.165Z,59.04
2023-01-21T23:31:26.115Z,59.32
2023-01-21T23:33:58.766Z,58.57
2023-01-21T23:36:26.609Z,59.52
2023-01-21T23:38:54.325Z,59.14
2023-01-21T23:41:22.284Z,58.56
2023-01-21T23:43:50.014Z,59.08
2023-01-21T23:46:19.787Z,59.31
2023-01-21T23:48:47.984Z,59.50
2023-01-21T23:51:18.284Z,59.21
2023-01-21T23:53:48.958Z,59.53
2023-01-21T23:56:21.949Z,58.97
2023-01-21T23:58:50.861Z,59.04
